Pagrindinis puslapis
METAR-TAF:

METAR-TAF

Oro uostai :

Sanya, Kinija

platuma: 18-18N, ilguma: 109-24E, Aukštis: 27 m

Dabartinis oras

Ataskaita buvo paskelbta 1 valandą ir 7 minutes, ne 12:00 UTC
Vėjas 2 kt nuo kintamojo kryptimis
Temperatūra 30°C
Drėgmė 79%
Slėgis 1009 hPa
Matomumas 10 km arba daugiau
Su prošvaistėmis ne aukštis 2100 ft

METAR: ZJSY 291200Z VRB01MPS 9999 BKN021 30/26 Q1009 NOSIG

Laikas: 21:07 (13:07 UTC)

Prognozė

Ataskaita buvo paskelbta 4 valandos ir 5 minutes, ne 09:02 UTC
Prognozė galioja nuo 29 metu 12 UTC su 30 metu 12 UTC
Vėjas 8 kt iš Pietų/Pietryčių
Matomumas 10 km arba daugiau
Mažai debesys ne aukštis 2000 ft
Laikinai
nuo 29 metu 18 UTC su 29 metu 22 UTC
Išsisklaidę debesys ne aukštis 1600 ft
Mažai debesys ne aukštis 2500 ft, Liūtiniai kamuoliniai debesys.
Su prošvaistėmis ne aukštis 4000 ft
perkūnija, lietus

TAF: ZJSY 290902Z 2912/3012 16004MPS 9999 FEW020 TX33/3006Z TN27/2921Z TEMPO 2918/2922 -TSRA SCT016 FEW025CB BKN040

Orai ataskaitas ir orų prognozės (METAR, TAF).

turimą stotys yra geltonos ir raudonos taškus žemėlapyje.

Perkelti pele per norėdami pamatyti stoties vardą.

Tada spustelėkite, norėdami matyti oro stebėjimo ir prognozės.

Norėdami pakeisti žemėlapį: spustelėkite ant žalios mygtukų su juodo kryžiaus žemyn,; žalią mygtuką su brūkšneliu, jei norite nutolinti; arba žalių rodyklių gretimoms žemėlapius.


METAR-TAF: